createdAt,value
2018-06-02T00:00:22.940Z,53.95
2018-06-02T00:01:32.880Z,53.66
2018-06-02T00:02:42.557Z,53.95
2018-06-02T00:03:51.983Z,53.85
2018-06-02T00:05:01.191Z,53.66
2018-06-02T00:06:10.643Z,53.75
2018-06-02T00:07:20.326Z,53.85
2018-06-02T00:08:29.241Z,53.85
2018-06-02T00:09:38.411Z,53.66
2018-06-02T00:10:48.099Z,53.66
2018-06-02T00:11:57.525Z,53.56
2018-06-02T00:13:06.673Z,53.75
2018-06-02T00:14:15.860Z,53.75
2018-06-02T00:15:25.298Z,53.75
2018-06-02T00:16:34.749Z,53.66
2018-06-02T00:17:44.177Z,53.56
2018-06-02T00:18:53.588Z,53.85
2018-06-02T00:20:03.009Z,53.56
2018-06-02T00:21:12.704Z,53.85
2018-06-02T00:22:22.118Z,53.47
2018-06-02T00:23:31.549Z,54.05
2018-06-02T00:24:41.240Z,53.66
2018-06-02T00:25:50.657Z,53.75
2018-06-02T00:27:00.322Z,53.85
2018-06-02T00:28:08.966Z,53.56
2018-06-02T00:29:18.378Z,53.66
2018-06-02T00:30:27.846Z,53.56
2018-06-02T00:31:37.267Z,53.75
2018-06-02T00:32:46.669Z,53.75
2018-06-02T00:33:55.581Z,53.56
2018-06-02T00:35:05.252Z,53.66
2018-06-02T00:36:14.163Z,53.66
2018-06-02T00:37:23.326Z,53.75
2018-06-02T00:38:32.490Z,53.66
2018-06-02T00:39:42.163Z,53.66
2018-06-02T00:40:51.816Z,53.66
2018-06-02T00:42:01.509Z,53.75
2018-06-02T00:43:10.675Z,53.66
2018-06-02T00:44:19.853Z,53.66
2018-06-02T00:45:29.297Z,53.75
2018-06-02T00:46:38.734Z,53.66
2018-06-02T00:47:48.685Z,53.85
2018-06-02T00:48:57.581Z,54.05
2018-06-02T00:50:06.755Z,54.24
2018-06-02T00:51:16.158Z,54.21
2018-06-02T00:52:25.828Z,53.53
2018-06-02T00:53:35.505Z,53.95
2018-06-02T00:54:45.181Z,53.75
2018-06-02T00:55:54.083Z,53.73
2018-06-02T00:57:03.500Z,53.85
2018-06-02T00:58:12.921Z,53.85
2018-06-02T00:59:22.333Z,53.85
2018-06-02T01:00:31.225Z,54.05
2018-06-02T01:01:40.957Z,54.05
2018-06-02T01:02:50.371Z,53.73
2018-06-02T01:03:59.816Z,53.92
2018-06-02T01:05:08.745Z,53.73
2018-06-02T01:06:18.453Z,53.85
2018-06-02T01:07:27.900Z,53.85
2018-06-02T01:08:37.320Z,53.92
2018-06-02T01:09:46.514Z,53.85
2018-06-02T01:10:56.210Z,53.75
2018-06-02T01:12:05.649Z,53.66
2018-06-02T01:13:15.123Z,53.73
2018-06-02T01:14:24.564Z,53.73
2018-06-02T01:15:33.994Z,53.73
2018-06-02T01:16:42.953Z,53.63
2018-06-02T01:17:52.128Z,54.05
2018-06-02T01:19:01.350Z,54.02
2018-06-02T01:20:10.778Z,53.63
2018-06-02T01:21:20.200Z,53.92
2018-06-02T01:22:29.610Z,53.63
2018-06-02T01:23:39.806Z,53.63
2018-06-02T01:24:48.973Z,53.73
2018-06-02T01:25:58.119Z,53.63
2018-06-02T01:27:07.301Z,53.73
2018-06-02T01:28:16.463Z,53.63
2018-06-02T01:29:25.894Z,53.63
2018-06-02T01:30:35.041Z,53.73
2018-06-02T01:31:44.196Z,53.73
2018-06-02T01:32:53.357Z,53.63
2018-06-02T01:34:02.784Z,53.73
2018-06-02T01:35:12.234Z,53.73
2018-06-02T01:36:21.385Z,53.63
2018-06-02T01:37:30.555Z,53.73
2018-06-02T01:38:39.982Z,53.63
2018-06-02T01:39:49.678Z,53.83
2018-06-02T01:40:59.313Z,53.83
2018-06-02T01:42:08.208Z,53.83
2018-06-02T01:43:17.104Z,53.83
2018-06-02T01:44:26.529Z,54.41
2018-06-02T01:45:36.259Z,53.63
2018-06-02T01:46:45.432Z,53.73
2018-06-02T01:47:54.858Z,53.83
2018-06-02T01:49:04.015Z,53.83
2018-06-02T01:50:12.911Z,53.83
2018-06-02T01:51:22.581Z,53.73
2018-06-02T01:52:32.500Z,54.41
2018-06-02T01:53:42.462Z,54.5
2018-06-02T01:54:51.868Z,53.73
2018-06-02T01:56:01.011Z,53.73
2018-06-02T01:57:10.672Z,53.83
2018-06-02T01:58:19.817Z,54.31
2018-06-02T01:59:29.233Z,54.41
2018-06-02T02:00:39.212Z,54.02
2018-06-02T02:01:48.636Z,54.41
2018-06-02T02:02:58.067Z,53.73
2018-06-02T02:04:07.497Z,53.83
2018-06-02T02:05:17.430Z,53.73
2018-06-02T02:06:26.607Z,53.73
2018-06-02T02:07:35.753Z,53.73
2018-06-02T02:08:44.664Z,53.53
2018-06-02T02:09:54.376Z,53.73
2018-06-02T02:11:03.269Z,53.63
2018-06-02T02:12:12.953Z,53.53
2018-06-02T02:13:22.379Z,53.63
2018-06-02T02:14:32.081Z,53.63
2018-06-02T02:15:41.767Z,53.73
2018-06-02T02:16:51.450Z,53.73
2018-06-02T02:18:00.881Z,53.53
2018-06-02T02:19:09.799Z,53.73
2018-06-02T02:20:19.207Z,53.63
2018-06-02T02:21:28.360Z,53.73
2018-06-02T02:22:37.796Z,53.73
2018-06-02T02:23:47.220Z,54.41
2018-06-02T02:24:57.154Z,53.83
2018-06-02T02:26:06.586Z,53.63
2018-06-02T02:27:16.266Z,53.63
2018-06-02T02:28:25.678Z,54.41
2018-06-02T02:29:34.310Z,53.73
2018-06-02T02:30:44.243Z,53.63
2018-06-02T02:31:53.935Z,53.53
2018-06-02T02:33:03.114Z,53.83
2018-06-02T02:34:12.610Z,53.63
2018-06-02T02:35:22.057Z,53.73
2018-06-02T02:36:31.744Z,53.83
2018-06-02T02:37:41.412Z,53.73
2018-06-02T02:38:51.099Z,53.63
2018-06-02T02:40:01.069Z,54.41
2018-06-02T02:41:10.501Z,54.5
2018-06-02T02:42:19.692Z,53.63
2018-06-02T02:43:29.636Z,54.31
2018-06-02T02:44:39.580Z,53.63
2018-06-02T02:45:49.513Z,53.73
2018-06-02T02:46:58.927Z,53.63
2018-06-02T02:48:08.345Z,53.83
2018-06-02T02:49:17.788Z,53.73
2018-06-02T02:50:27.523Z,53.73
2018-06-02T02:51:37.200Z,53.51
2018-06-02T02:52:47.197Z,54.11
2018-06-02T02:53:56.622Z,53.73
2018-06-02T02:55:06.123Z,53.92
2018-06-02T02:56:15.816Z,53.8
2018-06-02T02:57:25.242Z,54.31
2018-06-02T02:58:34.676Z,53.73
2018-06-02T02:59:44.654Z,53.7
2018-06-02T03:00:54.631Z,53.83
2018-06-02T03:02:04.062Z,53.7
2018-06-02T03:03:13.512Z,53.73
2018-06-02T03:04:22.407Z,53.7
2018-06-02T03:05:31.847Z,54.21
2018-06-02T03:06:41.832Z,54.21
2018-06-02T03:07:51.799Z,54.02
2018-06-02T03:09:01.486Z,54.21
2018-06-02T03:10:11.442Z,54.11
2018-06-02T03:11:20.859Z,54.19
2018-06-02T03:12:30.274Z,54.21
2018-06-02T03:13:39.458Z,54.11
2018-06-02T03:14:49.417Z,54.19
2018-06-02T03:15:58.844Z,54.21
2018-06-02T03:17:08.011Z,54.28
2018-06-02T03:18:17.155Z,54.09
2018-06-02T03:19:26.332Z,54.19
2018-06-02T03:20:35.779Z,54.28
2018-06-02T03:21:44.936Z,54.09
2018-06-02T03:22:54.353Z,54.19
2018-06-02T03:24:03.810Z,54.19
2018-06-02T03:25:13.487Z,54.19
2018-06-02T03:26:22.894Z,54.58
2018-06-02T03:27:32.313Z,54.28
2018-06-02T03:28:41.979Z,54.19
2018-06-02T03:29:51.670Z,54.19
2018-06-02T03:31:00.585Z,54.09
2018-06-02T03:32:10.547Z,54.19
2018-06-02T03:33:19.972Z,53.8
2018-06-02T03:34:28.860Z,54.19
2018-06-02T03:35:38.804Z,54.19
2018-06-02T03:36:48.201Z,54.28
2018-06-02T03:37:57.342Z,54.19
2018-06-02T03:39:06.237Z,54.19
2018-06-02T03:40:15.666Z,54.19
2018-06-02T03:41:25.078Z,54.28
2018-06-02T03:42:34.498Z,54.28
2018-06-02T03:43:44.159Z,54.28
2018-06-02T03:44:53.841Z,54.28
2018-06-02T03:46:02.752Z,54.19
2018-06-02T03:47:12.442Z,53.7
2018-06-02T03:48:21.876Z,54.19
2018-06-02T03:49:31.294Z,53.7
2018-06-02T03:50:40.439Z,54.19
2018-06-02T03:51:49.607Z,54.28
2018-06-02T03:52:58.773Z,53.8
2018-06-02T03:54:08.441Z,54.28
2018-06-02T03:55:17.593Z,53.8
2018-06-02T03:56:27.270Z,54.19
2018-06-02T03:57:36.435Z,54.19
2018-06-02T03:58:45.335Z,53.8
2018-06-02T03:59:54.490Z,54.09
2018-06-02T04:01:03.130Z,54.09
2018-06-02T04:02:12.552Z,54.19
2018-06-02T04:03:21.967Z,53.8
2018-06-02T04:04:31.656Z,53.99
2018-06-02T04:05:41.593Z,53.51
2018-06-02T04:06:50.760Z,54.19
2018-06-02T04:07:59.658Z,54.19
2018-06-02T04:09:08.824Z,53.8
2018-06-02T04:10:18.254Z,53.61
2018-06-02T04:11:27.148Z,53.7
2018-06-02T04:12:36.286Z,54.19
2018-06-02T04:13:45.955Z,54.09
2018-06-02T04:14:55.116Z,53.7
2018-06-02T04:16:04.533Z,54.09
2018-06-02T04:17:14.703Z,53.7
2018-06-02T04:18:24.120Z,54.09
2018-06-02T04:19:33.798Z,54.48
2018-06-02T04:20:43.219Z,54.19
2018-06-02T04:21:52.912Z,54.19
2018-06-02T04:23:02.338Z,54.19
2018-06-02T04:24:12.279Z,53.8
2018-06-02T04:25:21.955Z,53.8
2018-06-02T04:26:31.371Z,54.09
2018-06-02T04:27:41.299Z,53.8
2018-06-02T04:28:51.511Z,54.28
2018-06-02T04:30:00.669Z,54.28
2018-06-02T04:31:09.573Z,54.28
2018-06-02T04:32:18.478Z,54.19
2018-06-02T04:33:27.906Z,54.19
2018-06-02T04:34:37.582Z,54.19
2018-06-02T04:35:46.987Z,54.19
2018-06-02T04:36:56.678Z,54.19
2018-06-02T04:38:06.362Z,53.89
2018-06-02T04:39:15.529Z,54.19
2018-06-02T04:40:25.211Z,53.7
2018-06-02T04:41:35.042Z,53.8
2018-06-02T04:42:44.968Z,54.28
2018-06-02T04:43:54.652Z,54.09
2018-06-02T04:45:04.082Z,54.19
2018-06-02T04:46:13.505Z,54.28
2018-06-02T04:47:22.670Z,54.28
2018-06-02T04:48:31.845Z,54.28
2018-06-02T04:49:41.817Z,54.28
2018-06-02T04:50:51.483Z,54.19
2018-06-02T04:52:01.178Z,54.28
2018-06-02T04:53:10.341Z,54.28
2018-06-02T04:54:20.276Z,54.38
2018-06-02T04:55:29.183Z,54.38
2018-06-02T04:56:38.078Z,54.28
2018-06-02T04:57:47.496Z,54.38
2018-06-02T04:58:56.417Z,54.38
2018-06-02T05:00:06.111Z,54.28
2018-06-02T05:01:15.017Z,54.38
2018-06-02T05:02:24.447Z,54.58
2018-06-02T05:03:33.607Z,54.38
2018-06-02T05:04:43.305Z,54.38
2018-06-02T05:05:52.714Z,54.38
2018-06-02T05:07:02.385Z,54.48
2018-06-02T05:08:11.798Z,54.38
2018-06-02T05:09:20.954Z,54.38
2018-06-02T05:10:30.390Z,54.48
2018-06-02T05:11:40.071Z,54.38
2018-06-02T05:12:49.259Z,54.48
2018-06-02T05:13:58.164Z,54.48
2018-06-02T05:15:08.176Z,54.09
2018-06-02T05:16:17.403Z,54.48
2018-06-02T05:17:26.809Z,54.09
2018-06-02T05:18:36.214Z,54.48
2018-06-02T05:19:45.631Z,54.48
2018-06-02T05:20:55.064Z,54.09
2018-06-02T05:22:04.236Z,54.48
2018-06-02T05:23:13.384Z,54.28
2018-06-02T05:24:22.546Z,54.09
2018-06-02T05:25:31.706Z,54.09
2018-06-02T05:26:41.383Z,54.48
2018-06-02T05:27:51.062Z,54.28
2018-06-02T05:29:00.230Z,54.58
2018-06-02T05:30:09.654Z,54.38
2018-06-02T05:31:18.816Z,54.28
2018-06-02T05:32:28.236Z,54.48
2018-06-02T05:33:37.404Z,54.48
2018-06-02T05:34:46.565Z,54.09
2018-06-02T05:35:55.722Z,54.09
2018-06-02T05:37:05.138Z,54.38
2018-06-02T05:38:14.611Z,54.19
2018-06-02T05:39:23.773Z,54.28
2018-06-02T05:40:33.032Z,54.48
2018-06-02T05:41:42.226Z,54.09
2018-06-02T05:42:51.396Z,54.48
2018-06-02T05:44:00.838Z,54.48
2018-06-02T05:45:09.739Z,54.09
2018-06-02T05:46:18.888Z,54.38
2018-06-02T05:47:28.818Z,54.09
2018-06-02T05:48:38.757Z,54.28
2018-06-02T05:49:48.211Z,54.48
2018-06-02T05:50:57.380Z,54.09
2018-06-02T05:52:06.809Z,53.89
2018-06-02T05:53:16.753Z,54.19
2018-06-02T05:54:26.417Z,54.19
2018-06-02T05:55:35.952Z,54.19
2018-06-02T05:56:45.678Z,54.09
2018-06-02T05:57:54.853Z,54.19
2018-06-02T05:59:04.269Z,54.19
2018-06-02T06:00:13.938Z,54.09
2018-06-02T06:01:23.637Z,54.09
2018-06-02T06:02:32.794Z,54.19
2018-06-02T06:03:41.739Z,54.48
2018-06-02T06:04:51.428Z,54.38
2018-06-02T06:06:00.915Z,54.48
2018-06-02T06:07:10.320Z,54.09
2018-06-02T06:08:19.998Z,54.09
2018-06-02T06:09:29.945Z,54.19
2018-06-02T06:10:39.355Z,54.28
2018-06-02T06:11:48.516Z,54.19
2018-06-02T06:12:58.458Z,54.19
2018-06-02T06:14:07.877Z,54.19
2018-06-02T06:15:17.302Z,54.48
2018-06-02T06:16:26.720Z,54.09
2018-06-02T06:17:36.120Z,53.89
2018-06-02T06:18:45.541Z,54.28
2018-06-02T06:19:54.977Z,54.09
2018-06-02T06:21:04.411Z,54.09
2018-06-02T06:22:13.886Z,54.09
2018-06-02T06:23:23.296Z,54.28
2018-06-02T06:24:32.352Z,54.38
2018-06-02T06:25:42.296Z,54.19
2018-06-02T06:26:52.023Z,54.09
2018-06-02T06:28:01.601Z,54.19
2018-06-02T06:29:11.281Z,54.09
2018-06-02T06:30:20.931Z,54.48
2018-06-02T06:31:30.610Z,54.09
2018-06-02T06:32:40.059Z,54.28
2018-06-02T06:33:49.472Z,54.48
2018-06-02T06:34:58.387Z,54.19
2018-06-02T06:36:07.549Z,54.19
2018-06-02T06:37:16.761Z,54.19
2018-06-02T06:38:26.192Z,54.09
2018-06-02T06:39:35.631Z,54.09
2018-06-02T06:40:45.304Z,54.48
2018-06-02T06:41:54.729Z,54.09
2018-06-02T06:43:03.882Z,54.48
2018-06-02T06:44:13.297Z,54.09
2018-06-02T06:45:21.936Z,54.19
2018-06-02T06:46:31.513Z,54.48
2018-06-02T06:47:41.581Z,54.28
2018-06-02T06:48:50.744Z,54.09
2018-06-02T06:49:59.923Z,54.48
2018-06-02T06:51:09.650Z,54.38
2018-06-02T06:52:18.821Z,54.09
2018-06-02T06:53:28.001Z,54.48
2018-06-02T06:54:37.170Z,54.09
2018-06-02T06:55:46.354Z,54.09
2018-06-02T06:56:55.343Z,54.19
2018-06-02T06:58:05.288Z,54.48
2018-06-02T06:59:14.713Z,54.48
2018-06-02T07:00:24.396Z,54.48
2018-06-02T07:01:33.566Z,54.48
2018-06-02T07:02:43.025Z,54.48
2018-06-02T07:03:52.727Z,54.38
2018-06-02T07:05:02.140Z,54.48
2018-06-02T07:06:11.822Z,54.38
2018-06-02T07:07:20.961Z,54.48
2018-06-02T07:08:30.407Z,54.38
2018-06-02T07:09:39.606Z,54.28
2018-06-02T07:10:48.761Z,54.38
2018-06-02T07:11:58.276Z,54.58
2018-06-02T07:13:07.724Z,54.38
2018-06-02T07:14:17.153Z,54.28
2018-06-02T07:15:26.313Z,54.28
2018-06-02T07:16:35.997Z,54.38
2018-06-02T07:17:45.522Z,54.38
2018-06-02T07:18:54.768Z,54.58
2018-06-02T07:20:03.674Z,54.28
2018-06-02T07:21:12.846Z,54.28
2018-06-02T07:22:21.750Z,54.28
2018-06-02T07:23:31.416Z,54.28
2018-06-02T07:24:40.566Z,54.28
2018-06-02T07:25:50.020Z,54.28
2018-06-02T07:26:59.987Z,54.38
2018-06-02T07:28:08.888Z,54.19
2018-06-02T07:29:18.309Z,54.28
2018-06-02T07:30:27.749Z,53.99
2018-06-02T07:31:37.183Z,54.28
2018-06-02T07:32:46.356Z,54.28
2018-06-02T07:33:55.287Z,54.28
2018-06-02T07:35:04.463Z,54.28
2018-06-02T07:36:13.379Z,54.28
2018-06-02T07:37:23.061Z,54.28
2018-06-02T07:38:31.986Z,54.28
2018-06-02T07:39:41.232Z,54.28
2018-06-02T07:40:50.685Z,54.48
2018-06-02T07:42:00.378Z,54.28
2018-06-02T07:43:09.282Z,53.8
2018-06-02T07:44:19.387Z,53.89
2018-06-02T07:45:28.934Z,54.19
2018-06-02T07:46:38.390Z,54.19
2018-06-02T07:47:48.224Z,54.19
2018-06-02T07:48:57.140Z,54.28
2018-06-02T07:50:07.262Z,54.28
2018-06-02T07:51:17.017Z,54.38
2018-06-02T07:52:26.983Z,54.28
2018-06-02T07:53:36.392Z,53.7
2018-06-02T07:54:46.328Z,53.61
2018-06-02T07:55:55.797Z,53.8
2018-06-02T07:57:05.218Z,53.7
2018-06-02T07:58:14.640Z,53.8
2018-06-02T07:59:24.113Z,53.89
2018-06-02T08:00:33.302Z,53.99
2018-06-02T08:01:42.711Z,53.61
2018-06-02T08:02:51.858Z,54.28
2018-06-02T08:04:00.752Z,53.89
2018-06-02T08:05:10.211Z,54.28
2018-06-02T08:06:19.624Z,53.89
2018-06-02T08:07:28.787Z,53.8
2018-06-02T08:08:38.237Z,53.51
2018-06-02T08:09:47.805Z,53.61
2018-06-02T08:10:56.983Z,53.61
2018-06-02T08:12:06.674Z,53.99
2018-06-02T08:13:16.375Z,53.61
2018-06-02T08:14:26.065Z,53.7
2018-06-02T08:15:35.524Z,53.61
2018-06-02T08:16:45.234Z,53.51
2018-06-02T08:17:54.391Z,53.8
2018-06-02T08:19:04.071Z,53.51
2018-06-02T08:20:13.497Z,53.61
2018-06-02T08:21:22.946Z,53.8
2018-06-02T08:22:32.374Z,53.61
2018-06-02T08:23:42.032Z,53.99
2018-06-02T08:24:51.443Z,53.41
2018-06-02T08:26:00.884Z,53.89
2018-06-02T08:27:09.812Z,53.89
2018-06-02T08:28:19.477Z,53.61
2018-06-02T08:29:29.096Z,53.61
2018-06-02T08:30:38.541Z,53.61
2018-06-02T08:31:47.881Z,53.7
2018-06-02T08:32:56.801Z,53.89
2018-06-02T08:34:05.970Z,53.99
2018-06-02T08:35:14.886Z,53.89
2018-06-02T08:36:24.384Z,53.7
2018-06-02T08:37:34.327Z,53.7
2018-06-02T08:38:43.750Z,53.61
2018-06-02T08:39:54.195Z,53.99
2018-06-02T08:41:03.967Z,53.89
2018-06-02T08:42:13.431Z,53.8
2018-06-02T08:43:23.367Z,53.89
2018-06-02T08:44:33.060Z,53.89
2018-06-02T08:45:42.241Z,53.89
2018-06-02T08:46:51.703Z,53.61
2018-06-02T08:48:01.472Z,53.99
2018-06-02T08:49:10.889Z,53.8
2018-06-02T08:50:20.163Z,53.7
2018-06-02T08:51:29.473Z,53.61
2018-06-02T08:52:39.456Z,53.61
2018-06-02T08:53:48.883Z,53.61
2018-06-02T08:54:58.369Z,53.7
2018-06-02T08:56:07.579Z,53.7
2018-06-02T08:57:17.546Z,53.7
2018-06-02T08:58:26.989Z,53.7
2018-06-02T08:59:36.432Z,53.51
2018-06-02T09:00:45.591Z,53.8
2018-06-02T09:01:54.771Z,53.8
2018-06-02T09:03:03.947Z,53.51
2018-06-02T09:04:13.678Z,53.8
2018-06-02T09:05:22.896Z,53.61
2018-06-02T09:06:32.244Z,53.7
2018-06-02T09:07:42.044Z,53.51
2018-06-02T09:08:51.536Z,53.7
2018-06-02T09:10:00.508Z,53.7
2018-06-02T09:11:09.677Z,53.89
2018-06-02T09:12:19.083Z,53.89
2018-06-02T09:13:28.798Z,53.7
2018-06-02T09:14:38.533Z,53.41
2018-06-02T09:15:48.004Z,53.7
2018-06-02T09:16:56.920Z,53.8
2018-06-02T09:18:05.825Z,53.31
2018-06-02T09:19:15.307Z,53.31
2018-06-02T09:20:25.018Z,53.51
2018-06-02T09:21:34.704Z,53.31
2018-06-02T09:22:43.878Z,53.61
2018-06-02T09:23:53.309Z,53.8
2018-06-02T09:25:02.727Z,53.7
2018-06-02T09:26:11.884Z,53.61
2018-06-02T09:27:20.780Z,53.51
2018-06-02T09:28:29.942Z,53.7
2018-06-02T09:29:39.369Z,53.89
2018-06-02T09:30:49.117Z,53.8
2018-06-02T09:31:58.800Z,53.7
2018-06-02T09:33:08.493Z,53.7
2018-06-02T09:34:17.996Z,53.41
2018-06-02T09:35:27.784Z,53.31
2018-06-02T09:36:36.938Z,53.61
2018-06-02T09:37:46.355Z,53.61
2018-06-02T09:38:55.780Z,53.61
2018-06-02T09:40:04.936Z,53.61
2018-06-02T09:41:14.353Z,53.8
2018-06-02T09:42:24.032Z,53.8
2018-06-02T09:43:33.461Z,53.61
2018-06-02T09:44:43.517Z,53.31
2018-06-02T09:45:53.045Z,54.09
2018-06-02T09:47:02.284Z,53.31
2018-06-02T09:48:11.490Z,53.7
2018-06-02T09:49:21.235Z,53.22
2018-06-02T09:50:30.401Z,53.51
2018-06-02T09:51:39.857Z,53.51
2018-06-02T09:52:49.015Z,53.61
2018-06-02T09:53:58.702Z,53.61
2018-06-02T09:55:08.385Z,53.51
2018-06-02T09:56:18.331Z,53.61
2018-06-02T09:57:27.490Z,53.61
2018-06-02T09:58:36.945Z,53.51
2018-06-02T09:59:46.126Z,53.61
2018-06-02T10:00:55.316Z,53.61
2018-06-02T10:02:04.766Z,53.51
2018-06-02T10:03:14.476Z,53.51
2018-06-02T10:04:23.942Z,53.7
2018-06-02T10:05:33.675Z,53.51
2018-06-02T10:06:42.856Z,53.7
2018-06-02T10:07:52.306Z,53.41
2018-06-02T10:09:01.775Z,53.41
2018-06-02T10:10:10.950Z,53.7
2018-06-02T10:11:20.707Z,53.7
2018-06-02T10:12:30.690Z,53.31
2018-06-02T10:13:40.140Z,53.8
2018-06-02T10:14:49.843Z,53.8
2018-06-02T10:15:59.520Z,53.7
2018-06-02T10:17:08.949Z,53.7
2018-06-02T10:18:18.624Z,53.7
2018-06-02T10:19:27.860Z,53.51
2018-06-02T10:20:37.025Z,53.7
2018-06-02T10:21:46.733Z,53.51
2018-06-02T10:22:55.942Z,53.7
2018-06-02T10:24:05.812Z,53.12
2018-06-02T10:25:15.565Z,53.51
2018-06-02T10:26:24.754Z,53.41
2018-06-02T10:27:33.915Z,53.41
2018-06-02T10:28:43.625Z,53.41
2018-06-02T10:29:52.815Z,53.41
2018-06-02T10:31:02.272Z,53.31
2018-06-02T10:32:11.717Z,53.41
2018-06-02T10:33:20.618Z,53.31
2018-06-02T10:34:30.368Z,53.31
2018-06-02T10:35:39.957Z,53.22
2018-06-02T10:36:49.692Z,53.31
2018-06-02T10:37:58.872Z,53.12
2018-06-02T10:39:08.102Z,53.31
2018-06-02T10:40:17.541Z,53.41
2018-06-02T10:41:27.026Z,53.41
2018-06-02T10:42:36.445Z,53.31
2018-06-02T10:43:45.878Z,53.31
2018-06-02T10:44:55.359Z,53.31
2018-06-02T10:46:05.020Z,53.31
2018-06-02T10:47:14.209Z,53.31
2018-06-02T10:48:23.898Z,53.22
2018-06-02T10:49:33.332Z,53.22
2018-06-02T10:50:42.513Z,53.12
2018-06-02T10:51:52.193Z,53.12
2018-06-02T10:53:01.358Z,53.22
2018-06-02T10:54:10.795Z,53.12
2018-06-02T10:55:19.683Z,53.12
2018-06-02T10:56:29.362Z,53.22
2018-06-02T10:57:39.057Z,53.12
2018-06-02T10:58:48.473Z,53.22
2018-06-02T10:59:58.166Z,53.31
2018-06-02T11:01:07.843Z,53.22
2018-06-02T11:02:17.012Z,53.22
2018-06-02T11:03:26.452Z,53.41
2018-06-02T11:04:35.637Z,53.22
2018-06-02T11:05:45.362Z,53.24
2018-06-02T11:06:54.794Z,53.41
2018-06-02T11:08:04.769Z,53.51
2018-06-02T11:09:14.194Z,53.22
2018-06-02T11:10:23.622Z,53.51
2018-06-02T11:11:33.312Z,53.53
2018-06-02T11:12:42.734Z,53.31
2018-06-02T11:13:52.189Z,53.51
2018-06-02T11:15:01.885Z,53.41
2018-06-02T11:16:11.561Z,53.51
2018-06-02T11:17:21.242Z,53.41
2018-06-02T11:18:30.692Z,53.41
2018-06-02T11:19:40.257Z,53.51
2018-06-02T11:20:49.992Z,53.41
2018-06-02T11:21:59.925Z,53.44
2018-06-02T11:23:09.211Z,53.53
2018-06-02T11:24:19.170Z,53.31
2018-06-02T11:25:28.609Z,53.15
2018-06-02T11:26:38.332Z,53.44
2018-06-02T11:27:47.534Z,53.34
2018-06-02T11:28:56.516Z,53.34
2018-06-02T11:30:05.964Z,53.63
2018-06-02T11:31:15.415Z,53.24
2018-06-02T11:32:24.640Z,53.61
2018-06-02T11:33:33.818Z,52.73
2018-06-02T11:34:43.000Z,52.73
2018-06-02T11:35:52.512Z,53.73
2018-06-02T11:37:02.024Z,53.24
2018-06-02T11:38:11.240Z,52.86
2018-06-02T11:39:20.421Z,53.73
2018-06-02T11:40:29.647Z,53.73
2018-06-02T11:41:38.837Z,53.34
2018-06-02T11:42:48.773Z,53.15
2018-06-02T11:43:58.215Z,53.34
2018-06-02T11:45:08.289Z,53.05
2018-06-02T11:46:17.498Z,53.24
2018-06-02T11:47:26.915Z,52.66
2018-06-02T11:48:36.601Z,53.15
2018-06-02T11:49:46.352Z,52.66
2018-06-02T11:50:55.551Z,52.66
2018-06-02T11:52:04.719Z,52.66
2018-06-02T11:53:14.174Z,53.24
2018-06-02T11:54:23.637Z,52.66
2018-06-02T11:55:32.607Z,52.95
2018-06-02T11:56:42.351Z,52.66
2018-06-02T11:57:52.090Z,52.95
2018-06-02T11:59:01.024Z,53.24
2018-06-02T12:00:10.454Z,52.66
2018-06-02T12:01:19.398Z,53.15
2018-06-02T12:02:28.858Z,53.05
2018-06-02T12:03:38.997Z,53.05
2018-06-02T12:04:48.721Z,53.15
2018-06-02T12:05:58.410Z,52.66
2018-06-02T12:07:07.608Z,52.95
2018-06-02T12:08:16.833Z,53.24
2018-06-02T12:09:26.325Z,52.86
2018-06-02T12:10:35.239Z,52.86
2018-06-02T12:11:44.969Z,53.15
2018-06-02T12:12:54.425Z,52.76
2018-06-02T12:14:03.408Z,52.76
2018-06-02T12:15:13.123Z,52.76
2018-06-02T12:16:22.497Z,52.86
2018-06-02T12:17:32.445Z,53.05
2018-06-02T12:18:42.169Z,52.76
2018-06-02T12:19:51.907Z,52.86
2018-06-02T12:21:01.626Z,52.86
2018-06-02T12:22:11.076Z,52.95
2018-06-02T12:23:20.020Z,52.86
2018-06-02T12:24:28.950Z,52.86
2018-06-02T12:25:38.661Z,52.76
2018-06-02T12:26:48.369Z,52.95
2018-06-02T12:27:57.798Z,53.05
2018-06-02T12:29:06.994Z,52.86
2018-06-02T12:30:15.955Z,52.95
2018-06-02T12:31:25.126Z,52.95
2018-06-02T12:32:34.559Z,52.86
2018-06-02T12:33:44.296Z,53.05
2018-06-02T12:34:54.257Z,52.86
2018-06-02T12:36:03.442Z,53.05
2018-06-02T12:37:12.659Z,52.95
2018-06-02T12:38:22.132Z,52.66
2018-06-02T12:39:31.309Z,52.76
2018-06-02T12:40:40.449Z,52.76
2018-06-02T12:41:49.880Z,52.76
2018-06-02T12:42:59.616Z,52.86
2018-06-02T12:44:08.802Z,52.95
2018-06-02T12:45:18.263Z,53.05
2018-06-02T12:46:28.194Z,52.66
2018-06-02T12:47:37.693Z,52.95
2018-06-02T12:48:46.929Z,53.05
2018-06-02T12:49:55.871Z,52.95
2018-06-02T12:51:04.791Z,52.95
2018-06-02T12:52:14.007Z,53.05
2018-06-02T12:53:23.508Z,52.95
2018-06-02T12:54:33.011Z,52.95
2018-06-02T12:55:42.734Z,52.86
2018-06-02T12:56:52.675Z,52.86
2018-06-02T12:58:02.359Z,52.86
2018-06-02T12:59:11.784Z,52.86
2018-06-02T13:00:21.475Z,53.15
2018-06-02T13:01:30.904Z,53.24
2018-06-02T13:02:40.341Z,53.15
2018-06-02T13:03:49.770Z,53.34
2018-06-02T13:04:59.193Z,53.15
2018-06-02T13:06:08.642Z,53.15
2018-06-02T13:07:18.314Z,52.76
2018-06-02T13:08:27.746Z,52.76
2018-06-02T13:09:37.423Z,52.86
2018-06-02T13:10:47.359Z,52.66
2018-06-02T13:11:57.101Z,52.76
2018-06-02T13:13:06.553Z,52.37
2018-06-02T13:14:15.983Z,52.95
2018-06-02T13:15:25.657Z,52.76
2018-06-02T13:16:35.085Z,52.86
2018-06-02T13:17:44.268Z,52.86
2018-06-02T13:18:53.948Z,52.66
2018-06-02T13:20:03.129Z,52.66
2018-06-02T13:21:13.357Z,52.56
2018-06-02T13:22:23.191Z,52.56
2018-06-02T13:23:32.610Z,52.76
2018-06-02T13:24:41.813Z,52.66
2018-06-02T13:25:51.748Z,52.95
2018-06-02T13:27:01.170Z,52.56
2018-06-02T13:28:10.078Z,52.95
2018-06-02T13:29:19.254Z,52.95
2018-06-02T13:30:28.687Z,52.95
2018-06-02T13:31:38.141Z,52.88
2018-06-02T13:32:47.565Z,52.95
2018-06-02T13:33:56.713Z,52.95
2018-06-02T13:35:06.670Z,52.86
2018-06-02T13:36:16.105Z,52.86
2018-06-02T13:37:25.558Z,53.05
2018-06-02T13:38:34.971Z,53.05
2018-06-02T13:39:44.144Z,52.86
2018-06-02T13:40:53.621Z,52.98
2018-06-02T13:42:02.801Z,52.4
2018-06-02T13:43:11.965Z,52.47
2018-06-02T13:44:21.954Z,52.18
2018-06-02T13:45:31.384Z,52.4
2018-06-02T13:46:41.068Z,52.4
2018-06-02T13:47:50.489Z,52.2
2018-06-02T13:48:59.678Z,52.5
2018-06-02T13:50:09.110Z,52.5
2018-06-02T13:51:18.011Z,52.56
2018-06-02T13:52:27.904Z,52.4
2018-06-02T13:53:36.810Z,52.5
2018-06-02T13:54:45.982Z,52.4
2018-06-02T13:55:55.148Z,52.3
2018-06-02T13:57:04.389Z,52.3
2018-06-02T13:58:13.801Z,52.3
2018-06-02T13:59:22.713Z,52.4
2018-06-02T14:00:31.871Z,52.4
2018-06-02T14:01:41.533Z,52.4
2018-06-02T14:02:50.979Z,52.4
2018-06-02T14:04:00.165Z,52.11
2018-06-02T14:05:09.348Z,52.3
2018-06-02T14:06:18.781Z,52.4
2018-06-02T14:07:28.219Z,52.4
2018-06-02T14:08:37.885Z,52.4
2018-06-02T14:09:47.824Z,52.28
2018-06-02T14:10:56.739Z,52.3
2018-06-02T14:12:05.663Z,52.3
2018-06-02T14:13:15.107Z,52.3
2018-06-02T14:14:24.535Z,52.4
2018-06-02T14:15:34.000Z,52.5
2018-06-02T14:16:43.174Z,52.3
2018-06-02T14:17:52.592Z,52.4
2018-06-02T14:19:02.303Z,52.11
2018-06-02T14:20:11.507Z,52.3
2018-06-02T14:21:20.930Z,52.01
2018-06-02T14:22:29.583Z,52.11
2018-06-02T14:23:38.529Z,51.81
2018-06-02T14:24:47.976Z,52.11
2018-06-02T14:25:57.727Z,52.2
2018-06-02T14:27:06.911Z,52.11
2018-06-02T14:28:16.624Z,52.11
2018-06-02T14:29:26.031Z,52.11
2018-06-02T14:30:35.714Z,52.2
2018-06-02T14:31:44.887Z,52.11
2018-06-02T14:32:54.563Z,52.3
2018-06-02T14:34:03.762Z,52.3
2018-06-02T14:35:13.201Z,51.91
2018-06-02T14:36:22.880Z,52.2
2018-06-02T14:37:32.127Z,52.01
2018-06-02T14:38:41.300Z,51.72
2018-06-02T14:39:50.475Z,51.81
2018-06-02T14:41:00.269Z,52.01
2018-06-02T14:42:09.967Z,51.81
2018-06-02T14:43:19.647Z,52.3
2018-06-02T14:44:29.072Z,52.2
2018-06-02T14:45:38.487Z,52.11
2018-06-02T14:46:47.908Z,52.3
2018-06-02T14:47:57.332Z,51.72
2018-06-02T14:49:07.338Z,52.11
2018-06-02T14:50:17.037Z,52.3
2018-06-02T14:51:26.722Z,52.01
2018-06-02T14:52:36.657Z,52.03
2018-06-02T14:53:46.343Z,52.3
2018-06-02T14:54:55.807Z,52.11
2018-06-02T14:56:05.676Z,52.01
2018-06-02T14:57:14.592Z,52.2
2018-06-02T14:58:23.769Z,52.03